Time;durP1;ratioP1;P1;durP2;ratioP2;P2;SDS_P1;SDS_P2;PMS_P1;PMS_P2;Temp;Humidity;BMP_temperature;BMP_pressure;BME280_temperature;BME280_humidity;BME280_pressure;Samples;Min_cycle;Max_cycle;Signal;HPM_P1;HPM_P2
2022/11/21 00:01:20;;;;;;;0.80;0.80;;;1.80;99.90;;;;;;4973225;28;20044;-88
2022/11/21 00:03:51;;;;;;;0.70;0.70;;;1.80;99.90;;;;;;4955918;28;20059;-89
2022/11/21 00:06:18;;;;;;;0.80;0.80;;;1.80;99.90;;;;;;4973772;28;20524;-89
2022/11/21 00:08:48;;;;;;;0.80;0.80;;;1.70;99.90;;;;;;4958892;28;20048;-88
2022/11/21 00:11:16;;;;;;;0.73;0.73;;;1.80;99.90;;;;;;4946236;28;20118;-88
2022/11/21 00:13:43;;;;;;;0.80;0.80;;;1.80;99.90;;;;;;4934372;28;20132;-89
2022/11/21 00:16:13;;;;;;;0.80;0.80;;;1.80;99.90;;;;;;4959597;28;20056;-89
2022/11/21 00:18:46;;;;;;;0.80;0.80;;;1.80;99.90;;;;;;4950117;28;20295;-89
2022/11/21 00:21:15;;;;;;;0.80;0.80;;;1.70;99.90;;;;;;4954810;28;20547;-88
2022/11/21 00:23:42;;;;;;;0.77;0.77;;;1.70;99.90;;;;;;4971374;28;20176;-90
2022/11/21 00:26:15;;;;;;;0.73;0.73;;;1.90;99.90;;;;;;4940068;28;20493;-89
2022/11/21 00:28:53;;;;;;;0.90;0.90;;;1.80;99.90;;;;;;4971571;28;20690;-88
2022/11/21 00:31:46;;;;;;;0.80;0.80;;;1.70;99.90;;;;;;4931799;28;20063;-88
2022/11/21 00:34:11;;;;;;;;;;;1.80;99.90;;;;;;4956217;28;20048;-89
2022/11/21 00:36:40;;;;;;;0.80;0.80;;;1.90;99.90;;;;;;4953824;28;19932;-89
2022/11/21 00:39:06;;;;;;;0.80;0.80;;;1.90;99.90;;;;;;4928131;28;20535;-88
2022/11/21 00:42:22;;;;;;;;;;;;;;;;;;;;;
2022/11/21 00:45:17;;;;;;;0.73;0.73;;;1.90;99.90;;;;;;4980927;28;20434;-88
2022/11/21 00:50:38;;;;;;;0.75;0.75;;;1.90;99.90;;;;;;4951686;28;20057;-88
2022/11/21 00:53:13;;;;;;;0.75;0.75;;;1.80;99.90;;;;;;4922389;28;20057;-88
2022/11/21 00:55:47;;;;;;;0.73;0.73;;;2.00;99.90;;;;;;4918548;28;20556;-88
2022/11/21 00:58:30;;;;;;;0.75;0.75;;;1.70;99.90;;;;;;4882693;28;20058;-89
2022/11/21 01:01:43;;;;;;;0.80;0.80;;;1.60;99.90;;;;;;4878183;28;20552;-87
2022/11/21 01:04:15;;;;;;;0.70;0.70;;;1.50;99.90;;;;;;4885563;28;20264;-88
2022/11/21 01:06:52;;;;;;;0.80;0.80;;;1.70;99.90;;;;;;4865098;28;20116;-89
2022/11/21 01:09:27;;;;;;;0.80;0.80;;;1.70;99.90;;;;;;4915056;28;20047;-89
2022/11/21 01:12:05;;;;;;;0.80;0.80;;;1.70;99.90;;;;;;4896022;28;20081;-88
2022/11/21 01:14:33;;;;;;;0.75;0.75;;;1.70;99.90;;;;;;4884823;28;20822;-88
2022/11/21 01:16:59;;;;;;;0.80;0.80;;;1.70;99.90;;;;;;4864309;28;20380;-88
2022/11/21 01:19:49;;;;;;;0.80;0.80;;;1.80;99.90;;;;;;4884051;28;20385;-89
2022/11/21 01:22:36;;;;;;;0.80;0.80;;;1.80;99.90;;;;;;4888790;28;20081;-87
2022/11/21 01:25:02;;;;;;;0.80;0.80;;;1.80;99.90;;;;;;4930556;28;20430;-89
2022/11/21 01:27:30;;;;;;;0.80;0.80;;;1.60;99.90;;;;;;4912339;28;20454;-88
2022/11/21 01:29:56;;;;;;;0.73;0.73;;;1.70;99.90;;;;;;4948210;28;21028;-88
2022/11/21 01:32:22;;;;;;;0.80;0.80;;;1.80;99.90;;;;;;4917170;28;20037;-89
2022/11/21 01:34:51;;;;;;;0.80;0.80;;;1.70;99.90;;;;;;4932892;28;20045;-89
2022/11/21 01:37:16;;;;;;;0.73;0.73;;;1.70;99.90;;;;;;4932010;28;20041;-88
2022/11/21 01:39:42;;;;;;;0.80;0.80;;;1.80;99.90;;;;;;4949691;28;20533;-87
2022/11/21 01:42:11;;;;;;;0.73;0.73;;;1.70;99.90;;;;;;4935565;28;20560;-88
2022/11/21 01:44:52;;;;;;;0.80;0.80;;;1.80;99.90;;;;;;4934583;28;20550;-88
2022/11/21 01:47:21;;;;;;;0.80;0.80;;;1.80;99.90;;;;;;4939744;28;20041;-87
2022/11/21 01:49:47;;;;;;;0.70;0.70;;;1.80;99.90;;;;;;4950051;28;20143;-88
2022/11/21 01:52:27;;;;;;;0.80;0.80;;;1.80;99.90;;;;;;4940795;28;20156;-88
2022/11/21 01:55:16;;;;;;;0.70;0.70;;;1.80;99.90;;;;;;4936635;28;20517;-86
2022/11/21 01:57:47;;;;;;;0.77;0.77;;;1.70;99.90;;;;;;4930025;28;20053;-88
2022/11/21 02:00:20;;;;;;;0.80;0.80;;;1.80;99.90;;;;;;4936205;28;20285;-88
2022/11/21 02:02:59;;;;;;;0.75;0.75;;;1.80;99.90;;;;;;4934125;28;20371;-89
2022/11/21 02:05:30;;;;;;;0.80;0.80;;;1.80;99.90;;;;;;4937995;28;20057;-88
2022/11/21 02:11:55;;;;;;;0.75;0.75;;;1.70;99.90;;;;;;4964176;28;20055;-88
2022/11/21 02:14:21;;;;;;;0.80;0.80;;;1.70;99.90;;;;;;4960038;28;20694;-88
2022/11/21 02:16:47;;;;;;;0.80;0.80;;;1.70;99.90;;;;;;4961050;28;20076;-88
2022/11/21 02:19:42;;;;;;;0.90;0.90;;;1.70;99.90;;;;;;4938282;28;20048;-89
2022/11/21 02:22:32;;;;;;;0.80;0.80;;;1.80;99.90;;;;;;4970811;28;20149;-88
2022/11/21 02:25:10;;;;;;;0.80;0.80;;;1.80;99.90;;;;;;4964988;28;20048;-88
2022/11/21 02:27:36;;;;;;;0.80;0.80;;;1.70;99.90;;;;;;4943036;28;20401;-88
2022/11/21 02:30:14;;;;;;;0.80;0.80;;;1.80;99.90;;;;;;4941557;28;20852;-87
2022/11/21 02:32:47;;;;;;;0.80;0.80;;;1.80;99.90;;;;;;4949364;28;20844;-87
2022/11/21 02:35:29;;;;;;;0.80;0.80;;;1.90;99.90;;;;;;4936716;28;20470;-88
2022/11/21 02:38:04;;;;;;;0.80;0.80;;;2.00;99.90;;;;;;4934760;28;20045;-87
2022/11/21 02:40:40;;;;;;;0.85;0.85;;;1.90;99.90;;;;;;4950916;28;20077;-88
2022/11/21 02:43:29;;;;;;;0.80;0.80;;;1.90;99.90;;;;;;4947646;28;20117;-88
2022/11/21 02:46:00;;;;;;;0.80;0.80;;;1.80;99.90;;;;;;4941002;28;21037;-87
2022/11/21 02:48:28;;;;;;;0.82;0.82;;;1.60;99.90;;;;;;4936127;28;20044;-89
2022/11/21 02:50:57;;;;;;;0.80;0.80;;;1.70;99.90;;;;;;4953639;28;20044;-88
2022/11/21 02:53:22;;;;;;;0.80;0.80;;;1.70;99.90;;;;;;4950760;28;21120;-88
2022/11/21 02:55:48;;;;;;;0.80;0.80;;;1.80;99.90;;;;;;4949582;28;20044;-88
2022/11/21 02:58:14;;;;;;;0.80;0.80;;;1.90;99.90;;;;;;4942803;28;20047;-89
2022/11/21 03:00:42;;;;;;;0.77;0.77;;;1.90;99.90;;;;;;4931704;28;20048;-87
2022/11/21 03:03:08;;;;;;;0.80;0.80;;;1.70;99.90;;;;;;4934662;28;20340;-88
2022/11/21 03:05:34;;;;;;;0.82;0.82;;;1.60;99.90;;;;;;4931911;28;20044;-88
2022/11/21 03:08:00;;;;;;;0.90;0.90;;;1.60;99.90;;;;;;4960836;28;20206;-89
2022/11/21 03:10:26;;;;;;;0.77;0.77;;;1.60;99.90;;;;;;4954232;28;20965;-88
2022/11/21 03:12:59;;;;;;;0.90;0.90;;;1.50;99.90;;;;;;4938688;28;20079;-88
2022/11/21 03:15:27;;;;;;;0.80;0.80;;;1.40;99.90;;;;;;4913318;28;20052;-87
2022/11/21 03:17:54;;;;;;;0.80;0.80;;;1.40;99.90;;;;;;4941694;28;20851;-88
2022/11/21 03:20:20;;;;;;;0.80;0.80;;;1.50;99.90;;;;;;4942897;28;20559;-87
2022/11/21 03:22:48;;;;;;;0.75;0.75;;;1.30;99.90;;;;;;4936745;28;20076;-87
2022/11/21 03:25:14;;;;;;;0.80;0.80;;;1.30;99.90;;;;;;4940892;28;20067;-86
2022/11/21 03:27:42;;;;;;;0.80;0.80;;;1.40;99.90;;;;;;4929261;28;20537;-87
2022/11/21 03:30:09;;;;;;;0.80;0.80;;;1.40;99.90;;;;;;4912799;28;20866;-87
2022/11/21 03:32:35;;;;;;;0.77;0.77;;;1.40;99.90;;;;;;4941027;28;20114;-89
2022/11/21 03:35:04;;;;;;;0.80;0.80;;;1.40;99.90;;;;;;4975187;28;20274;-87
2022/11/21 03:37:32;;;;;;;0.80;0.80;;;1.20;99.90;;;;;;4915691;28;20493;-87
2022/11/21 03:39:58;;;;;;;0.80;0.80;;;1.10;99.90;;;;;;4929176;28;20044;-87
2022/11/21 03:42:24;;;;;;;0.80;0.80;;;1.20;99.90;;;;;;4932207;28;20492;-89
2022/11/21 03:44:52;;;;;;;0.80;0.80;;;1.30;99.90;;;;;;4955688;28;20877;-89
2022/11/21 03:47:21;;;;;;;0.80;0.80;;;1.20;99.90;;;;;;4952058;28;20214;-87
2022/11/21 03:49:50;;;;;;;0.75;0.75;;;1.30;99.90;;;;;;4935258;28;20505;-88
2022/11/21 03:52:18;;;;;;;0.80;0.80;;;1.30;99.90;;;;;;4949235;28;20068;-88
2022/11/21 03:54:56;;;;;;;0.70;0.70;;;1.30;99.90;;;;;;4950886;28;20044;-89
2022/11/21 03:57:24;;;;;;;0.80;0.80;;;1.20;99.90;;;;;;4945022;28;20050;-88
2022/11/21 03:59:52;;;;;;;0.80;0.80;;;1.40;99.90;;;;;;4937166;28;20375;-88
2022/11/21 04:02:18;;;;;;;0.80;0.80;;;1.20;99.90;;;;;;4944128;28;20063;-88
2022/11/21 04:04:44;;;;;;;0.80;0.80;;;1.20;99.90;;;;;;4940105;28;20200;-89
2022/11/21 04:07:10;;;;;;;0.80;0.80;;;1.20;99.90;;;;;;4945593;28;20068;-89
2022/11/21 04:09:39;;;;;;;0.77;0.77;;;1.10;99.90;;;;;;4931327;28;20048;-88
2022/11/21 04:12:05;;;;;;;0.80;0.80;;;1.20;99.90;;;;;;4964901;28;20063;-89
2022/11/21 04:14:30;;;;;;;0.80;0.80;;;1.20;99.90;;;;;;4940834;28;20032;-88
2022/11/21 04:16:56;;;;;;;0.80;0.80;;;1.10;99.90;;;;;;4960104;28;20122;-89
2022/11/21 04:19:29;;;;;;;0.80;0.80;;;1.00;99.90;;;;;;4953427;28;20040;-88
2022/11/21 04:21:55;;;;;;;0.80;0.80;;;1.00;99.90;;;;;;4953975;28;20040;-89
2022/11/21 04:24:21;;;;;;;0.85;0.85;;;1.00;99.90;;;;;;4941147;28;20851;-88
2022/11/21 04:26:47;;;;;;;0.80;0.80;;;1.00;99.90;;;;;;4949530;28;20198;-88
2022/11/21 04:29:13;;;;;;;0.80;0.80;;;0.70;99.90;;;;;;4911818;28;20053;-88
2022/11/21 04:31:41;;;;;;;0.80;0.80;;;0.80;99.90;;;;;;4935577;28;20121;-87
2022/11/21 04:34:06;;;;;;;0.80;0.80;;;0.70;99.90;;;;;;4929622;28;20121;-87
2022/11/21 04:36:32;;;;;;;0.80;0.80;;;0.70;99.90;;;;;;4946786;28;20067;-87
2022/11/21 04:39:01;;;;;;;0.80;0.80;;;0.70;99.90;;;;;;4971000;28;20258;-87
2022/11/21 04:41:30;;;;;;;0.70;0.70;;;0.40;99.90;;;;;;4969526;28;20464;-87
2022/11/21 04:44:05;;;;;;;0.80;0.80;;;0.30;99.90;;;;;;4972265;28;20452;-87
2022/11/21 04:46:30;;;;;;;0.80;0.80;;;0.30;99.90;;;;;;4954054;28;20071;-86
2022/11/21 04:48:56;;;;;;;0.80;0.80;;;0.30;99.90;;;;;;4954809;28;20284;-87
2022/11/21 04:51:39;;;;;;;0.88;0.88;;;0.20;99.90;;;;;;4949348;28;20041;-87
2022/11/21 04:54:05;;;;;;;0.80;0.80;;;0.20;99.90;;;;;;4947194;28;20075;-87
2022/11/21 04:56:40;;;;;;;0.95;0.95;;;0.40;99.90;;;;;;4955452;28;20972;-86
2022/11/21 04:59:11;;;;;;;0.80;0.80;;;0.40;99.90;;;;;;4952639;28;20107;-87
2022/11/21 05:01:37;;;;;;;0.80;0.80;;;0.40;99.90;;;;;;4948212;28;20040;-87
2022/11/21 05:04:32;;;;;;;0.80;0.80;;;0.30;99.90;;;;;;4935248;28;20044;-86
2022/11/21 05:06:58;;;;;;;0.82;0.82;;;0.30;99.90;;;;;;4957288;28;20049;-87
2022/11/21 05:09:53;;;;;;;0.80;0.80;;;0.40;99.90;;;;;;4916850;28;20800;-86
2022/11/21 05:15:31;;;;;;;0.90;0.90;;;0.30;99.90;;;;;;4966282;28;20052;-86
2022/11/21 05:18:00;;;;;;;0.80;0.80;;;0.20;99.90;;;;;;4946562;28;20833;-86
2022/11/21 05:20:26;;;;;;;0.77;0.77;;;0.00;99.90;;;;;;4948701;28;20095;-86
2022/11/21 05:22:52;;;;;;;0.80;0.80;;;0.00;99.90;;;;;;4947184;28;20383;-86
2022/11/21 05:25:18;;;;;;;0.80;0.80;;;0.00;99.90;;;;;;4939078;28;20383;-86
2022/11/21 05:27:43;;;;;;;0.85;0.85;;;0.10;99.90;;;;;;4949287;28;20049;-85
2022/11/21 05:30:10;;;;;;;0.80;0.80;;;0.00;99.90;;;;;;4958648;28;20044;-86
2022/11/21 05:32:36;;;;;;;0.90;0.90;;;0.00;99.90;;;;;;4919763;28;20040;-87
2022/11/21 05:35:01;;;;;;;0.80;0.80;;;0.00;99.90;;;;;;4953052;28;20274;-86
2022/11/21 05:37:30;;;;;;;0.80;0.80;;;0.10;99.90;;;;;;4938458;28;20743;-86
2022/11/21 05:39:55;;;;;;;0.80;0.80;;;-0.10;99.90;;;;;;4966070;28;20048;-86
2022/11/21 05:43:44;;;;;;;1.00;1.00;;;-0.10;99.90;;;;;;4935286;28;20560;-85
2022/11/21 05:45:08;;;;;;;0.80;0.80;;;-0.20;99.90;;;;;;4946612;28;20044;-86
2022/11/21 05:47:33;;;;;;;0.90;0.90;;;-0.30;99.90;;;;;;4966259;28;20251;-86
2022/11/21 05:49:59;;;;;;;0.80;0.80;;;-0.30;99.90;;;;;;4960411;28;20461;-86
2022/11/21 05:52:28;;;;;;;0.80;0.80;;;-0.30;99.90;;;;;;4917154;28;20044;-84
2022/11/21 05:54:54;;;;;;;0.80;0.80;;;-0.40;99.90;;;;;;4941696;28;20048;-85
2022/11/21 05:57:19;;;;;;;0.90;0.90;;;-0.40;99.90;;;;;;4943029;28;20048;-86
2022/11/21 05:59:45;;;;;;;0.80;0.80;;;-0.30;99.90;;;;;;4925299;28;20426;-87
2022/11/21 06:05:08;;;;;;;0.80;0.80;;;-0.30;99.90;;;;;;4944608;28;20652;-86
2022/11/21 06:07:33;;;;;;;0.90;0.90;;;-0.20;99.90;;;;;;4940547;28;20060;-87
2022/11/21 06:09:59;;;;;;;0.80;0.80;;;-0.30;99.90;;;;;;4934900;28;20052;-85
2022/11/21 06:12:25;;;;;;;0.80;0.80;;;-0.20;99.90;;;;;;4922084;28;20051;-85
2022/11/21 06:14:51;;;;;;;0.80;0.80;;;-0.20;99.90;;;;;;4927186;28;20856;-86
2022/11/21 06:17:19;;;;;;;0.80;0.80;;;0.00;99.90;;;;;;4952718;28;20044;-85
2022/11/21 06:19:45;;;;;;;0.80;0.80;;;-0.20;99.90;;;;;;4937555;28;20152;-83
2022/11/21 06:22:10;;;;;;;0.80;0.80;;;-0.10;99.90;;;;;;4954739;28;20053;-85
2022/11/21 06:24:36;;;;;;;0.80;0.80;;;0.00;99.90;;;;;;4973668;28;20417;-86
2022/11/21 06:27:11;;;;;;;0.80;0.80;;;-0.10;99.90;;;;;;4961931;28;20044;-85
2022/11/21 06:29:37;;;;;;;0.80;0.80;;;-0.10;99.90;;;;;;4962899;28;20204;-83
2022/11/21 06:32:02;;;;;;;0.80;0.80;;;-0.10;99.90;;;;;;4970224;28;20080;-82
2022/11/21 06:34:28;;;;;;;0.80;0.80;;;-0.10;99.90;;;;;;4969716;28;20048;-82
2022/11/21 06:36:54;;;;;;;0.80;0.80;;;-0.20;99.90;;;;;;4966574;28;20900;-84
2022/11/21 06:39:20;;;;;;;0.80;0.80;;;-0.10;99.90;;;;;;4974178;28;20970;-84
2022/11/21 06:41:49;;;;;;;0.80;0.80;;;-0.20;99.90;;;;;;4930814;28;20539;-86
2022/11/21 06:44:18;;;;;;;0.80;0.80;;;-0.10;99.90;;;;;;4975726;28;20812;-85
2022/11/21 06:46:47;;;;;;;0.80;0.80;;;-0.10;99.90;;;;;;4957950;28;20089;-85
2022/11/21 06:49:15;;;;;;;0.80;0.80;;;-0.30;99.90;;;;;;4949248;28;20044;-85
2022/11/21 06:51:41;;;;;;;0.73;0.73;;;-0.20;99.90;;;;;;4942959;28;20102;-84
2022/11/21 06:54:06;;;;;;;0.85;0.85;;;-0.20;99.90;;;;;;4955220;28;20430;-84
2022/11/21 06:56:35;;;;;;;0.80;0.80;;;-0.20;99.90;;;;;;4929263;28;20785;-83
2022/11/21 06:59:01;;;;;;;0.80;0.80;;;-0.20;99.90;;;;;;4937051;28;20048;-84
2022/11/21 07:01:27;;;;;;;5.80;4.00;;;-0.20;99.90;;;;;;4960731;28;20590;-83
2022/11/21 07:03:53;;;;;;;0.80;0.80;;;-0.30;99.90;;;;;;4951845;28;20814;-82
2022/11/21 07:06:19;;;;;;;0.80;0.80;;;-0.30;99.90;;;;;;4966186;28;20110;-86
2022/11/21 07:08:45;;;;;;;0.80;0.80;;;-0.70;99.90;;;;;;4964381;28;21050;-82
2022/11/21 07:11:13;;;;;;;0.80;0.80;;;-0.80;99.90;;;;;;4972323;28;20075;-82
2022/11/21 07:13:39;;;;;;;0.80;0.80;;;-0.70;99.90;;;;;;4970238;28;20209;-84
2022/11/21 07:16:07;;;;;;;0.80;0.80;;;-0.60;99.90;;;;;;4947965;28;20048;-82
2022/11/21 07:18:34;;;;;;;0.80;0.80;;;-0.60;99.90;;;;;;4962376;28;20048;-85
2022/11/21 07:21:02;;;;;;;0.80;0.80;;;-0.60;99.90;;;;;;4927441;28;20338;-80
2022/11/21 07:23:29;;;;;;;0.80;0.80;;;-0.50;99.90;;;;;;4964351;28;20055;-84
2022/11/21 07:25:58;;;;;;;0.80;0.80;;;-0.50;99.90;;;;;;4963157;28;20447;-83
2022/11/21 07:28:23;;;;;;;0.80;0.80;;;-0.60;99.90;;;;;;4958321;28;20819;-85
2022/11/21 07:30:49;;;;;;;0.80;0.80;;;-0.50;99.90;;;;;;4955907;28;20059;-81
2022/11/21 07:33:15;;;;;;;0.80;0.80;;;-0.60;99.90;;;;;;4960701;28;20048;-81
2022/11/21 07:35:42;;;;;;;0.90;0.90;;;-0.50;99.90;;;;;;4965114;28;20044;-83
2022/11/21 07:38:08;;;;;;;0.80;0.80;;;-0.40;99.90;;;;;;4970334;28;20105;-84
2022/11/21 07:40:34;;;;;;;0.80;0.80;;;-0.10;99.90;;;;;;4962201;28;20833;-84
2022/11/21 07:43:01;;;;;;;0.80;0.80;;;-0.10;99.90;;;;;;4964054;28;20301;-81
2022/11/21 07:45:27;;;;;;;0.80;0.80;;;-0.10;99.90;;;;;;4982159;28;20049;-84
2022/11/21 07:47:58;;;;;;;0.80;0.80;;;0.00;99.90;;;;;;4938263;28;20052;-81
2022/11/21 07:50:23;;;;;;;0.80;0.80;;;0.00;99.90;;;;;;4979914;28;20056;-82
2022/11/21 07:52:49;;;;;;;0.80;0.80;;;0.00;99.90;;;;;;4965178;28;20040;-81
2022/11/21 07:55:15;;;;;;;0.80;0.80;;;0.20;99.90;;;;;;4961650;28;20950;-80
2022/11/21 07:57:41;;;;;;;0.80;0.80;;;0.30;99.90;;;;;;4962660;28;20519;-81
2022/11/21 08:00:07;;;;;;;0.80;0.80;;;0.40;99.90;;;;;;4986846;28;20056;-83
2022/11/21 08:02:33;;;;;;;0.80;0.80;;;0.50;99.90;;;;;;4962369;28;20036;-86
2022/11/21 08:04:59;;;;;;;0.80;0.80;;;0.60;99.90;;;;;;4939281;28;20506;-85
2022/11/21 08:07:27;;;;;;;0.80;0.80;;;0.70;99.90;;;;;;4960160;28;20056;-82
2022/11/21 08:09:53;;;;;;;0.90;0.90;;;0.90;99.90;;;;;;4963941;28;20711;-85
2022/11/21 08:12:19;;;;;;;0.80;0.80;;;0.90;99.90;;;;;;4964945;28;20810;-86
2022/11/21 08:14:44;;;;;;;0.80;0.80;;;0.90;99.90;;;;;;4968080;28;20246;-83
2022/11/21 08:17:10;;;;;;;0.80;0.80;;;0.80;99.90;;;;;;4953664;28;20532;-86
2022/11/21 08:19:36;;;;;;;0.80;0.80;;;0.80;99.90;;;;;;4938289;28;20534;-84
2022/11/21 08:22:02;;;;;;;0.77;0.77;;;0.90;99.90;;;;;;4967006;28;20048;-87
2022/11/21 08:24:28;;;;;;;0.80;0.80;;;1.10;99.90;;;;;;4963360;28;20110;-89
2022/11/21 08:26:54;;;;;;;0.75;0.75;;;1.20;99.90;;;;;;4953801;28;20579;-88
2022/11/21 08:29:25;;;;;;;0.85;0.85;;;1.20;99.90;;;;;;4938904;28;20059;-88
2022/11/21 08:31:51;;;;;;;0.80;0.80;;;1.20;99.90;;;;;;4951069;28;20628;-87
2022/11/21 08:34:24;;;;;;;0.80;0.80;;;1.30;99.90;;;;;;4960029;28;20052;-87
2022/11/21 08:37:13;;;;;;;0.80;0.80;;;1.50;99.90;;;;;;4959713;28;20068;-89
2022/11/21 08:39:39;;;;;;;0.75;0.75;;;1.30;99.90;;;;;;4964678;28;20059;-89
2022/11/21 08:42:08;;;;;;;0.80;0.80;;;1.40;99.90;;;;;;4941126;28;20266;-87
2022/11/21 08:44:34;;;;;;;0.80;0.80;;;1.40;99.90;;;;;;4966204;28;20517;-84
2022/11/21 08:47:01;;;;;;;0.73;0.73;;;1.70;99.90;;;;;;4970402;28;20049;-86
2022/11/21 08:49:27;;;;;;;0.80;0.80;;;1.80;99.90;;;;;;4977172;28;20133;-88
2022/11/21 08:51:53;;;;;;;0.80;0.80;;;1.80;99.90;;;;;;4954805;28;20048;-87
2022/11/21 08:54:23;;;;;;;0.80;0.80;;;1.60;99.90;;;;;;4969349;28;20443;-94
2022/11/21 08:56:55;;;;;;;0.77;0.77;;;1.40;99.90;;;;;;4972956;28;20553;-88
2022/11/21 08:59:26;;;;;;;0.80;0.80;;;1.40;99.90;;;;;;4942037;28;20059;-88
2022/11/21 09:01:52;;;;;;;0.80;0.80;;;1.40;99.90;;;;;;4960500;28;20036;-87
2022/11/21 09:04:18;;;;;;;0.80;0.80;;;1.50;99.90;;;;;;4961873;28;20210;-90
2022/11/21 09:06:44;;;;;;;0.80;0.80;;;1.60;99.90;;;;;;4938700;28;20430;-90
2022/11/21 09:09:12;;;;;;;0.75;0.75;;;1.60;99.90;;;;;;4976175;28;20053;-93
2022/11/21 09:11:38;;;;;;;0.80;0.80;;;1.70;99.90;;;;;;4957451;28;20880;-89
2022/11/21 09:19:38;;;;;;;0.80;0.80;;;1.50;99.90;;;;;;4973227;28;20083;-87
2022/11/21 09:22:04;;;;;;;0.82;0.82;;;1.50;99.90;;;;;;4938668;28;20262;-88
2022/11/21 09:24:30;;;;;;;0.80;0.80;;;1.50;99.90;;;;;;4964053;28;20867;-86
2022/11/21 09:26:55;;;;;;;0.80;0.80;;;1.70;99.90;;;;;;4953462;28;20051;-87
2022/11/21 09:29:21;;;;;;;0.80;0.80;;;1.70;99.90;;;;;;4979817;28;20525;-87
2022/11/21 09:31:47;;;;;;;0.77;0.77;;;1.70;99.90;;;;;;4935065;28;20457;-86
2022/11/21 09:34:13;;;;;;;0.80;0.80;;;1.70;99.90;;;;;;4936864;28;20419;-82
2022/11/21 09:36:39;;;;;;;0.90;0.90;;;1.70;99.90;;;;;;4982191;28;20048;-85
2022/11/21 09:39:10;;;;;;;0.80;0.80;;;1.90;99.90;;;;;;4959951;28;20125;-85
2022/11/21 09:41:54;;;;;;;0.80;0.80;;;1.70;99.90;;;;;;4951927;28;21046;-84
2022/11/21 09:44:51;;;;;;;0.73;0.73;;;1.60;99.90;;;;;;4970534;28;20489;-84
2022/11/21 09:47:22;;;;;;;0.80;0.80;;;1.70;99.90;;;;;;4952687;28;20044;-83
2022/11/21 09:50:01;;;;;;;0.80;0.80;;;1.80;99.90;;;;;;4964246;28;20580;-84
2022/11/21 09:52:43;;;;;;;0.80;0.80;;;1.50;99.90;;;;;;4961644;28;20123;-84
2022/11/21 09:55:30;;;;;;;0.80;0.80;;;1.50;99.90;;;;;;4962564;28;20144;-83
2022/11/21 09:57:59;;;;;;;0.80;0.80;;;1.70;99.90;;;;;;4967184;28;20896;-85
2022/11/21 10:00:25;;;;;;;0.80;0.80;;;1.50;99.90;;;;;;4969100;28;20063;-82
2022/11/21 10:02:51;;;;;;;0.85;0.85;;;1.60;99.90;;;;;;4962347;28;20044;-83
2022/11/21 10:05:35;;;;;;;0.80;0.80;;;1.80;99.90;;;;;;4937679;28;20454;-84
2022/11/21 10:08:13;;;;;;;0.77;0.77;;;1.90;99.90;;;;;;4971833;28;20723;-84
2022/11/21 10:10:55;;;;;;;0.77;0.77;;;1.90;99.90;;;;;;4955920;28;20341;-84
2022/11/21 10:13:45;;;;;;;0.85;0.85;;;2.00;99.90;;;;;;4967116;28;20502;-83
2022/11/21 10:16:21;;;;;;;0.80;0.80;;;2.00;99.90;;;;;;4940986;28;20059;-82
2022/11/21 10:19:10;;;;;;;0.73;0.73;;;2.10;99.90;;;;;;4963970;28;20888;-84
2022/11/21 10:21:39;;;;;;;0.80;0.80;;;2.10;99.90;;;;;;4963765;28;20067;-84
2022/11/21 10:24:08;;;;;;;0.80;0.80;;;2.30;99.90;;;;;;4972412;28;21149;-83
2022/11/21 10:26:49;;;;;;;0.80;0.80;;;2.30;99.90;;;;;;4964348;28;20037;-85
2022/11/21 10:29:49;;;;;;;0.70;0.70;;;2.00;99.90;;;;;;4972348;28;20971;-83
2022/11/21 10:32:23;;;;;;;0.73;0.73;;;2.30;99.90;;;;;;4947691;28;20047;-81
2022/11/21 10:34:54;;;;;;;0.73;0.73;;;2.30;99.90;;;;;;4973340;28;20568;-89
2022/11/21 10:37:31;;;;;;;0.77;0.77;;;2.30;99.90;;;;;;4944620;28;20645;-84
2022/11/21 10:40:22;;;;;;;0.70;0.70;;;2.20;99.90;;;;;;4966363;28;20610;-84
2022/11/21 10:42:57;;;;;;;0.80;0.80;;;2.40;99.90;;;;;;4946830;28;20529;-82
2022/11/21 10:45:23;;;;;;;0.77;0.77;;;2.60;99.90;;;;;;4962504;28;20448;-83
2022/11/21 10:47:50;;;;;;;0.80;0.80;;;2.50;99.90;;;;;;4959955;28;20048;-84
2022/11/21 10:50:48;;;;;;;0.73;0.73;;;2.60;99.90;;;;;;4944242;28;20052;-83
2022/11/21 10:56:18;;;;;;;;;;;2.50;99.90;;;;;;4955472;28;20060;-83
2022/11/21 10:58:51;;;;;;;0.70;0.70;;;2.60;99.90;;;;;;4955019;28;20877;-82
2022/11/21 11:01:28;;;;;;;0.70;0.70;;;2.60;99.90;;;;;;4956558;28;20043;-83
2022/11/21 11:04:17;;;;;;;0.70;0.70;;;2.80;99.90;;;;;;4960009;28;20495;-82
2022/11/21 11:06:45;;;;;;;0.70;0.70;;;2.80;99.90;;;;;;4979330;28;20681;-84
2022/11/21 11:09:33;;;;;;;0.80;0.80;;;2.90;99.90;;;;;;4958312;28;20056;-81
2022/11/21 11:12:17;;;;;;;0.70;0.70;;;2.80;99.90;;;;;;4954131;28;20075;-83
2022/11/21 11:14:50;;;;;;;0.70;0.70;;;2.90;99.90;;;;;;4975561;28;20544;-82
2022/11/21 11:17:16;;;;;;;0.70;0.70;;;2.80;99.90;;;;;;4958899;28;21024;-84
2022/11/21 11:20:00;;;;;;;0.70;0.70;;;3.00;99.90;;;;;;4946046;28;20060;-83
2022/11/21 11:22:27;;;;;;;0.70;0.70;;;2.80;99.90;;;;;;4954260;28;20076;-83
2022/11/21 11:24:53;;;;;;;0.70;0.70;;;2.90;99.90;;;;;;4939249;28;20048;-82
2022/11/21 11:27:26;;;;;;;0.70;0.70;;;2.90;99.90;;;;;;4968003;28;20442;-82
2022/11/21 11:29:52;;;;;;;0.70;0.70;;;2.80;99.90;;;;;;4946243;28;20387;-81
2022/11/21 11:32:18;;;;;;;0.70;0.70;;;3.00;99.90;;;;;;4960350;28;20179;-82
2022/11/21 11:34:50;;;;;;;0.70;0.70;;;2.90;99.90;;;;;;4929620;28;20040;-82
2022/11/21 11:37:37;;;;;;;0.70;0.70;;;2.90;99.90;;;;;;4952025;28;20048;-82
2022/11/21 11:40:03;;;;;;;0.70;0.70;;;2.80;99.90;;;;;;4960190;28;20426;-82
2022/11/21 11:48:28;;;;;;;0.80;0.80;;;3.10;99.90;;;;;;4959319;28;20052;-85
2022/11/21 11:51:05;;;;;;;0.70;0.70;;;3.20;99.90;;;;;;4953763;28;20098;-83
2022/11/21 11:53:42;;;;;;;0.70;0.70;;;3.30;99.90;;;;;;4966487;28;20750;-80
2022/11/21 11:56:32;;;;;;;0.70;0.70;;;3.40;99.90;;;;;;4959980;28;20848;-83
2022/11/21 11:59:20;;;;;;;0.70;0.70;;;3.30;99.90;;;;;;4961979;28;20084;-84
2022/11/21 12:02:01;;;;;;;0.70;0.70;;;3.30;99.90;;;;;;4967460;28;20102;-83
2022/11/21 12:04:31;;;;;;;0.70;0.70;;;3.30;99.90;;;;;;4967922;28;20059;-84
2022/11/21 12:07:21;;;;;;;0.70;0.70;;;3.50;99.90;;;;;;4962597;28;20715;-83
2022/11/21 12:10:12;;;;;;;0.70;0.70;;;3.50;99.90;;;;;;4967023;28;20071;-83
2022/11/21 12:12:42;;;;;;;0.70;0.70;;;3.70;99.90;;;;;;4965324;28;20044;-83
2022/11/21 12:18:12;;;;;;;0.80;0.80;;;3.80;99.90;;;;;;4959167;28;20689;-80
2022/11/21 12:21:02;;;;;;;0.70;0.70;;;3.80;99.90;;;;;;4979586;28;20507;-84
2022/11/21 12:23:32;;;;;;;0.70;0.70;;;4.00;99.90;;;;;;4956972;28;20044;-83
2022/11/21 12:26:20;;;;;;;0.70;0.70;;;3.90;99.90;;;;;;4965465;28;20060;-80
2022/11/21 12:29:14;;;;;;;0.80;0.80;;;4.00;99.90;;;;;;4976388;28;20052;-81
2022/11/21 12:32:14;;;;;;;0.70;0.70;;;4.20;99.90;;;;;;4958716;28;20071;-83
2022/11/21 12:35:18;;;;;;;0.70;0.70;;;4.40;99.90;;;;;;4956368;28;20040;-82
2022/11/21 12:37:56;;;;;;;0.70;0.70;;;4.60;99.90;;;;;;4959563;28;20865;-84
2022/11/21 12:42:47;;;;;;;0.70;0.70;;;4.70;99.90;;;;;;4961999;28;20950;-81
2022/11/21 12:44:22;;;;;;;0.70;0.70;;;4.80;99.90;;;;;;4957565;28;20906;-81
2022/11/21 12:46:59;;;;;;;0.70;0.70;;;4.80;99.90;;;;;;4930823;28;20569;-82
2022/11/21 12:55:43;;;;;;;0.70;0.70;;;4.70;99.90;;;;;;4981713;28;20063;-82
2022/11/21 12:58:35;;;;;;;0.70;0.70;;;4.60;99.90;;;;;;4951986;28;20135;-80
2022/11/21 13:01:22;;;;;;;0.70;0.70;;;4.60;99.90;;;;;;4975478;28;20563;-83
2022/11/21 13:03:55;;;;;;;0.70;0.70;;;4.60;99.90;;;;;;4945026;28;21094;-82
2022/11/21 13:06:32;;;;;;;0.70;0.70;;;4.50;99.90;;;;;;4960742;28;20443;-81
2022/11/21 13:09:01;;;;;;;0.70;0.70;;;4.60;99.90;;;;;;4942807;28;20068;-81
2022/11/21 13:11:58;;;;;;;0.80;0.80;;;4.60;99.90;;;;;;4955730;28;20054;-81
2022/11/21 13:14:35;;;;;;;0.70;0.70;;;4.50;99.90;;;;;;4957129;28;20079;-79
2022/11/21 13:17:39;;;;;;;0.70;0.70;;;4.50;99.90;;;;;;4957551;28;20129;-81
2022/11/21 13:20:27;;;;;;;0.80;0.80;;;4.50;99.90;;;;;;4959995;28;20187;-81
2022/11/21 13:22:55;;;;;;;0.70;0.70;;;4.60;99.90;;;;;;4958585;28;20067;-81
2022/11/21 13:25:30;;;;;;;0.70;0.70;;;4.50;99.90;;;;;;4960933;28;20052;-79
2022/11/21 13:28:18;;;;;;;0.70;0.70;;;4.60;99.90;;;;;;4975394;28;20055;-78
2022/11/21 13:30:54;;;;;;;0.70;0.70;;;4.70;99.90;;;;;;4952310;28;20044;-79
2022/11/21 13:33:36;;;;;;;0.70;0.70;;;4.60;99.90;;;;;;4938402;28;20537;-80
2022/11/21 13:36:11;;;;;;;0.65;0.65;;;4.60;99.90;;;;;;4957606;28;20557;-83
2022/11/21 13:39:06;;;;;;;0.70;0.70;;;4.50;99.90;;;;;;4957384;28;20036;-82
2022/11/21 13:44:32;;;;;;;0.70;0.70;;;4.60;99.90;;;;;;4955767;28;20784;-80
2022/11/21 13:47:04;;;;;;;0.70;0.70;;;4.70;99.90;;;;;;4958309;28;21012;-79
2022/11/21 13:49:39;;;;;;;0.70;0.70;;;4.80;99.90;;;;;;4952702;28;20223;-80
2022/11/21 13:52:32;;;;;;;0.70;0.70;;;4.70;99.90;;;;;;4966247;28;20040;-80
2022/11/21 13:55:24;;;;;;;0.70;0.70;;;4.70;99.90;;;;;;4950427;28;20048;-80
2022/11/21 13:58:02;;;;;;;0.70;0.70;;;4.70;99.90;;;;;;4956814;28;20220;-80
2022/11/21 14:00:39;;;;;;;0.70;0.70;;;4.60;99.90;;;;;;4954140;28;20049;-81
2022/11/21 14:03:27;;;;;;;0.70;0.70;;;4.70;99.90;;;;;;4956782;28;20041;-80
2022/11/21 14:06:22;;;;;;;0.70;0.70;;;4.60;99.90;;;;;;4980053;28;20040;-79